createdAt,value
2017-09-01T00:02:10.000Z,23.2
2017-09-01T00:12:10.000Z,23.2
2017-09-01T00:22:10.000Z,23.1
2017-09-01T00:32:10.000Z,23.2
2017-09-01T00:42:10.000Z,23.2
2017-09-01T00:52:10.000Z,23.2
2017-09-01T01:02:10.000Z,22.4
2017-09-01T01:12:10.000Z,21.9
2017-09-01T01:22:10.000Z,21.7
2017-09-01T01:32:10.000Z,21.6
2017-09-01T01:42:10.000Z,21.4
2017-09-01T01:52:10.000Z,21.3
2017-09-01T02:02:10.000Z,21.4
2017-09-01T02:12:10.000Z,21.2
2017-09-01T02:22:10.000Z,21.1
2017-09-01T02:32:10.000Z,21
2017-09-01T02:42:10.000Z,21
2017-09-01T02:52:10.000Z,21
2017-09-01T03:02:10.000Z,20.9
2017-09-01T03:12:10.000Z,20.8
2017-09-01T03:22:10.000Z,20.7
2017-09-01T03:32:10.000Z,20.5
2017-09-01T03:42:10.000Z,20.5
2017-09-01T03:52:10.000Z,20.5
2017-09-01T04:02:10.000Z,20.5
2017-09-01T04:12:10.000Z,20.4
2017-09-01T04:22:10.000Z,20.4
2017-09-01T04:32:10.000Z,20.2
2017-09-01T04:42:10.000Z,20.3
2017-09-01T04:52:10.000Z,20.4
2017-09-01T05:02:10.000Z,20.3
2017-09-01T05:12:10.000Z,20.2
2017-09-01T05:22:10.000Z,20.1
2017-09-01T05:32:11.000Z,20.1
2017-09-01T05:42:11.000Z,20.3
2017-09-01T05:52:11.000Z,20.2
2017-09-01T06:02:11.000Z,20.2
2017-09-01T06:12:11.000Z,20.3
2017-09-01T06:22:11.000Z,20.5
2017-09-01T06:32:11.000Z,20.4
2017-09-01T06:42:11.000Z,20.6
2017-09-01T06:52:11.000Z,20.6
2017-09-01T07:02:11.000Z,20.7
2017-09-01T07:12:11.000Z,20.7
2017-09-01T07:22:11.000Z,20.8
2017-09-01T07:32:11.000Z,20.8
2017-09-01T07:42:11.000Z,20.8
2017-09-01T07:52:11.000Z,20.7
2017-09-01T08:02:11.000Z,20.9
2017-09-01T08:12:11.000Z,21.1
2017-09-01T08:22:11.000Z,21
2017-09-01T08:32:11.000Z,20.8
2017-09-01T08:42:11.000Z,20.9
2017-09-01T08:52:11.000Z,21
2017-09-01T09:02:11.000Z,21
2017-09-01T09:12:11.000Z,21.2
2017-09-01T09:22:11.000Z,21.2
2017-09-01T09:32:11.000Z,21.2
2017-09-01T09:42:11.000Z,21.4
2017-09-01T09:52:11.000Z,21.3
2017-09-01T10:02:11.000Z,21.2
2017-09-01T10:12:11.000Z,21.2
2017-09-01T10:22:11.000Z,21.4
2017-09-01T10:32:11.000Z,21.1
2017-09-01T10:42:11.000Z,21
2017-09-01T10:52:11.000Z,20.8
2017-09-01T11:02:11.000Z,20.7
2017-09-01T11:12:11.000Z,20.9
2017-09-01T11:22:11.000Z,20.8
2017-09-01T11:32:11.000Z,20.8
2017-09-01T11:42:11.000Z,20.8
2017-09-01T11:52:11.000Z,20.9
2017-09-01T12:02:11.000Z,21.1
2017-09-01T12:12:12.000Z,21
2017-09-01T12:22:12.000Z,21.1
2017-09-01T12:32:12.000Z,21.2
2017-09-01T12:42:12.000Z,21.3
2017-09-01T12:52:12.000Z,21.3
2017-09-01T13:02:12.000Z,21.3
2017-09-01T13:12:12.000Z,21.3
2017-09-01T13:22:13.000Z,21.2
2017-09-01T13:32:12.000Z,21.4
2017-09-01T13:42:12.000Z,21.4
2017-09-01T13:52:12.000Z,21.5
2017-09-01T14:02:12.000Z,21.5
2017-09-01T14:12:12.000Z,21.5
2017-09-01T14:22:12.000Z,21.6
2017-09-01T14:32:12.000Z,21.6
2017-09-01T14:42:12.000Z,21.6
2017-09-01T14:52:12.000Z,21.6
2017-09-01T15:02:12.000Z,21.6
2017-09-01T15:12:12.000Z,21.6
2017-09-01T15:22:12.000Z,21.6
2017-09-01T15:32:12.000Z,21.6
2017-09-01T15:42:12.000Z,21.5
2017-09-01T15:52:12.000Z,21.4
2017-09-01T16:02:12.000Z,21.3
2017-09-01T16:12:12.000Z,21.2
2017-09-01T16:22:12.000Z,21.2
2017-09-01T16:32:12.000Z,21.1
2017-09-01T16:42:12.000Z,21.1
2017-09-01T16:52:12.000Z,21
2017-09-01T17:02:12.000Z,20.9
2017-09-01T17:12:12.000Z,20.7
2017-09-01T17:22:12.000Z,20.6
2017-09-01T17:32:12.000Z,20.5
2017-09-01T17:42:12.000Z,20.5
2017-09-01T17:52:12.000Z,20.4
2017-09-01T18:02:12.000Z,20.4
2017-09-01T18:12:12.000Z,20.3
2017-09-01T18:22:12.000Z,20.4
2017-09-01T18:32:12.000Z,20.3
2017-09-01T18:42:12.000Z,20.4
2017-09-01T18:52:12.000Z,20.3
2017-09-01T19:02:13.000Z,20.2
2017-09-01T19:12:13.000Z,20.3
2017-09-01T19:22:13.000Z,20.5
2017-09-01T19:32:13.000Z,20.8
2017-09-01T19:42:13.000Z,20.7
2017-09-01T19:52:13.000Z,21
2017-09-01T20:02:13.000Z,20.7
2017-09-01T20:12:13.000Z,20.5
2017-09-01T20:32:13.000Z,20.5
2017-09-01T21:22:13.000Z,21.4
2017-09-01T21:32:13.000Z,22.1
2017-09-01T21:42:13.000Z,21.8
2017-09-01T21:52:13.000Z,21.5
2017-09-01T22:02:13.000Z,21.5
2017-09-01T22:12:13.000Z,21.4
2017-09-01T22:22:13.000Z,21.3
2017-09-01T22:32:13.000Z,21.3
2017-09-01T22:52:13.000Z,21.3
2017-09-01T23:02:13.000Z,21.2
2017-09-01T23:12:13.000Z,21.2
2017-09-01T23:22:13.000Z,21.2
2017-09-01T23:32:13.000Z,21.2
2017-09-01T23:42:13.000Z,21.2
2017-09-01T23:52:13.000Z,21.2
